ADDS METAR Data INFO
IDs: Format: Raw Decoded Include TAF

Data at: 1312 UTC 11 Dec 2017

KFLL 111253Z 34007KT 10SM FEW030 11/04 A3026 RMK AO2 SLP248 T01060039 $
KFLL 111153Z 33007KT 10SM FEW025 09/04 A3026 RMK AO2 SLP247 T00940044 10111 20089 53009 $
KFLL 111053Z 34007KT 10SM CLR 09/05 A3025 RMK AO2 SLP244 T00940050 $
KFLL 110953Z 32007KT 10SM CLR 09/05 A3024 RMK AO2 SLP238 T00940050 $
KFLL 110853Z 32007KT 10SM CLR 10/05 A3023 RMK AO2 SLP238 T01000050 55005 $
KFLL 110753Z 32006KT 10SM CLR 10/04 A3022 RMK AO2 SLP234 T01000044 $
KFLL 110653Z 32007KT 10SM CLR 11/04 A3023 RMK AO2 SLP238 T01060044 $
KFLL 110553Z 32007KT 10SM CLR 11/04 A3025 RMK AO2 SLP243 T01110044 10128 20106 58008 $
KFLL 110453Z 32008KT 10SM CLR 11/04 A3025 RMK AO2 SLP244 T01110044 401670083 $
KFLL 110353Z 32008KT 10SM FEW025 11/05 A3027 RMK AO2 SLP251 T01110050 $
KFLL 110253Z 32008KT 10SM CLR 11/07 A3028 RMK AO2 SLP251 T01110067 50008 $
KFLL 110153Z 31006KT 10SM FEW025 11/06 A3028 RMK AO2 SLP252 T01110061 $
KFLL 110053Z 31008KT 10SM FEW020 12/06 A3027 RMK AO2 SLP249 T01170061 $
KFLL 102353Z 31007KT 10SM FEW025 13/05 A3025 RMK AO2 SLP243 T01280050 10167 20128 51014 $
KFLL 102253Z 31006KT 10SM FEW027 14/05 A3024 RMK AO2 SLP240 T01390050 $
KFLL 102153Z 35007KT 10SM FEW025 16/04 A3022 RMK AO2 SLP233 T01560044 $
KFLL 102053Z 33009KT 10SM FEW020 16/05 A3021 RMK AO2 SLP229 T01610050 53000 $
KFLL 101953Z 33007G16KT 10SM FEW025 16/04 A3020 RMK AO2 SLP227 T01610044 $
KFLL 101853Z 33011KT 10SM CLR 17/04 A3020 RMK AO2 SLP227 T01670044 $
KFLL 101753Z 35011KT 10SM FEW150 16/03 A3021 RMK AO2 SLP228 T01560028 10161 20083 58024 $
KFLL 101653Z COR 36010KT 10SM FEW150 15/03 A3025 RMK AO2 SLP242 T01500028
KFLL 101553Z 33010G19KT 10SM CLR 13/02 A3027 RMK AO2 SLP250 T01330017 $
KFLL 101453Z 33010G18KT 290V010 10SM FEW035 FEW150 12/02 A3028 RMK AO2 SLP253 T01220022 51019 $
KFLL 101353Z 34009G18KT 10SM FEW035 FEW150 10/02 A3027 RMK AO2 SLP250 T01000017 $
KFLL 101253Z 34011G18KT 10SM FEW025 FEW100 09/01 A3025 RMK AO2 SLP242 T00890006 $
KFLL 101153Z 33009G18KT 10SM FEW018 FEW038 08/01 A3022 RMK AO2 SLP233 70033 T00830011 10122 20083 53021 $
KFLL 101053Z 33012G20KT 10SM CLR 09/01 A3020 RMK AO2 SLP225 T00890006 $
KFLL 100953Z 32007G19KT 10SM CLR 09/04 A3018 RMK AO2 SLP218 T00940044 $
KFLL 100853Z 32012G18KT 10SM CLR 10/04 A3016 RMK AO2 SLP213 T01000044 53007 $
KFLL 100753Z 33008KT 10SM CLR 11/06 A3015 RMK AO2 SLP208 T01060056 $
KFLL 100653Z 32013KT 10SM CLR 11/06 A3015 RMK AO2 SLP208 T01110061 $
KFLL 100553Z 33011G18KT 10SM FEW022 12/09 A3014 RMK AO2 SLP206 T01220089 10167 20122 50009 $
KFLL 100453Z 33008G20KT 10SM SCT027 13/11 A3014 RMK AO2 SLP206 T01330111 402610133 $
KFLL 100353Z 32009KT 10SM SCT025 14/12 A3014 RMK AO2 SLP205 T01440117 $
KFLL 100253Z 32009KT 10SM BKN035 OVC045 16/13 A3011 RMK AO2 SLP196 T01560128 51028
KFLL 100153Z 34009KT 10SM FEW025 FEW140 16/13 A3009 RMK AO2 SLP188 T01610133